createdAt,value
2023-05-12T00:01:47.804Z,38.63
2023-05-12T00:04:16.244Z,41.93
2023-05-12T00:06:46.287Z,41.73
2023-05-12T00:09:15.009Z,43.93
2023-05-12T00:11:43.518Z,50.13
2023-05-12T00:14:11.947Z,55.70
2023-05-12T00:16:40.398Z,68.90
2023-05-12T00:19:09.030Z,72.20
2023-05-12T00:21:37.562Z,69.10
2023-05-12T00:24:08.005Z,75.83
2023-05-12T00:26:36.499Z,83.90
2023-05-12T00:29:05.033Z,79.03
2023-05-12T00:31:33.809Z,61.83
2023-05-12T00:34:02.272Z,54.60
2023-05-12T00:36:30.594Z,53.70
2023-05-12T00:38:59.497Z,52.57
2023-05-12T00:41:29.570Z,53.83
2023-05-12T00:43:58.016Z,51.47
2023-05-12T00:46:26.759Z,50.97
2023-05-12T00:48:55.390Z,53.27
2023-05-12T00:51:24.477Z,53.07
2023-05-12T00:53:53.210Z,51.30
2023-05-12T00:56:21.978Z,52.63
2023-05-12T00:58:51.655Z,55.73
2023-05-12T01:01:20.192Z,52.20
2023-05-12T01:03:49.010Z,48.57
2023-05-12T01:06:23.183Z,41.60
2023-05-12T01:08:51.783Z,46.63
2023-05-12T01:11:20.480Z,37.40
2023-05-12T01:13:48.939Z,38.57
2023-05-12T01:16:24.009Z,37.87
2023-05-12T01:18:55.688Z,35.47
2023-05-12T01:21:24.155Z,39.17
2023-05-12T01:23:59.642Z,36.13
2023-05-12T01:26:32.360Z,36.37
2023-05-12T01:29:02.517Z,38.07
2023-05-12T01:31:32.036Z,38.07
2023-05-12T01:34:00.856Z,38.50
2023-05-12T01:36:29.311Z,42.50
2023-05-12T01:38:57.823Z,37.60
2023-05-12T01:41:26.201Z,45.13
2023-05-12T01:43:55.680Z,42.33
2023-05-12T01:46:24.568Z,42.80
2023-05-12T01:48:52.957Z,42.37
2023-05-12T01:51:21.766Z,38.50
2023-05-12T01:53:50.198Z,41.57
2023-05-12T01:56:18.648Z,35.83
2023-05-12T01:58:47.250Z,36.70
2023-05-12T02:01:17.156Z,39.23
2023-05-12T02:03:45.729Z,35.33
2023-05-12T02:06:14.998Z,40.07
2023-05-12T02:08:43.435Z,43.50
2023-05-12T02:11:11.796Z,44.53
2023-05-12T02:13:40.271Z,48.57
2023-05-12T02:16:08.989Z,44.80
2023-05-12T02:18:38.676Z,44.70
2023-05-12T02:21:07.597Z,53.50
2023-05-12T02:23:36.330Z,56.30
2023-05-12T02:26:04.862Z,67.07
2023-05-12T02:28:33.502Z,57.90
2023-05-12T02:31:02.232Z,63.13
2023-05-12T02:33:31.204Z,67.57
2023-05-12T02:36:01.060Z,66.63
2023-05-12T02:38:29.464Z,59.77
2023-05-12T02:40:58.072Z,54.23
2023-05-12T02:43:26.474Z,55.70
2023-05-12T02:45:55.455Z,42.63
2023-05-12T02:48:23.938Z,48.43
2023-05-12T02:50:52.394Z,50.57
2023-05-12T02:53:21.996Z,47.60
2023-05-12T02:55:51.101Z,49.07
2023-05-12T02:58:19.588Z,51.37
2023-05-12T03:00:54.133Z,57.53
2023-05-12T03:03:28.821Z,51.83
2023-05-12T03:05:57.382Z,43.53
2023-05-12T03:08:26.964Z,31.33
2023-05-12T03:10:55.778Z,45.93
2023-05-12T03:13:24.226Z,41.80
2023-05-12T03:15:52.646Z,42.17
2023-05-12T03:18:21.265Z,37.93
2023-05-12T03:20:49.739Z,40.43
2023-05-12T03:23:18.143Z,38.87
2023-05-12T03:25:47.751Z,42.07
2023-05-12T03:28:16.208Z,42.83
2023-05-12T03:30:44.629Z,32.90
2023-05-12T03:33:13.314Z,37.97
2023-05-12T03:35:41.756Z,39.53
2023-05-12T03:38:10.268Z,41.53
2023-05-12T03:40:38.687Z,42.40
2023-05-12T03:43:08.332Z,27.67
2023-05-12T03:45:36.647Z,39.00
2023-05-12T03:48:05.272Z,35.87
2023-05-12T03:50:34.074Z,39.87
2023-05-12T03:53:02.829Z,34.97
2023-05-12T03:55:31.316Z,33.43
2023-05-12T03:57:59.788Z,32.43
2023-05-12T04:00:29.574Z,33.13
2023-05-12T04:02:58.190Z,29.20
2023-05-12T04:05:26.821Z,33.10
2023-05-12T04:07:55.260Z,29.13
2023-05-12T04:10:23.614Z,29.43
2023-05-12T04:12:53.069Z,37.17
2023-05-12T04:15:21.714Z,43.10
2023-05-12T04:17:52.135Z,31.43
2023-05-12T04:20:20.797Z,38.93
2023-05-12T04:22:49.471Z,42.90
2023-05-12T04:25:18.038Z,29.37
2023-05-12T04:27:46.536Z,31.97
2023-05-12T04:30:15.215Z,41.77
2023-05-12T04:32:43.820Z,36.30
2023-05-12T04:35:13.652Z,33.43
2023-05-12T04:37:42.120Z,31.40
2023-05-12T04:40:11.024Z,31.70
2023-05-12T04:42:39.440Z,29.97
2023-05-12T04:45:08.794Z,29.93
2023-05-12T04:47:37.398Z,28.13
2023-05-12T04:50:06.719Z,28.43
2023-05-12T04:52:36.422Z,31.37
2023-05-12T04:55:05.024Z,29.97
2023-05-12T04:57:33.411Z,27.27
2023-05-12T05:00:05.097Z,24.33
2023-05-12T05:02:33.752Z,19.30
2023-05-12T05:05:02.084Z,22.43
2023-05-12T05:07:30.898Z,22.77
2023-05-12T05:10:01.179Z,24.20
2023-05-12T05:12:29.611Z,23.73
2023-05-12T05:14:58.086Z,19.93
2023-05-12T05:17:26.443Z,21.30
2023-05-12T05:19:59.028Z,22.73
2023-05-12T05:22:28.422Z,29.43
2023-05-12T05:24:56.887Z,27.77
2023-05-12T05:27:26.677Z,25.37
2023-05-12T05:29:55.326Z,24.37
2023-05-12T05:32:24.163Z,28.03
2023-05-12T05:34:52.547Z,20.50
2023-05-12T05:37:21.146Z,17.67
2023-05-12T05:39:49.583Z,28.30
2023-05-12T05:42:18.962Z,22.57
2023-05-12T05:44:48.754Z,28.33
2023-05-12T05:47:17.160Z,24.27
2023-05-12T05:49:46.040Z,26.20
2023-05-12T05:52:14.550Z,21.27
2023-05-12T05:54:42.925Z,17.63
2023-05-12T05:57:11.358Z,17.77
2023-05-12T05:59:39.781Z,26.00
2023-05-12T06:02:09.555Z,20.87
2023-05-12T06:04:37.950Z,26.20
2023-05-12T06:07:06.609Z,21.13
2023-05-12T06:09:35.057Z,20.17
2023-05-12T06:12:03.486Z,23.27
2023-05-12T06:14:34.738Z,24.43
2023-05-12T06:17:03.298Z,18.03
2023-05-12T06:19:33.088Z,23.07
2023-05-12T06:22:01.558Z,24.40
2023-05-12T06:24:29.915Z,19.23
2023-05-12T06:26:58.374Z,25.07
2023-05-12T06:29:27.205Z,18.73
2023-05-12T06:31:55.751Z,17.80
2023-05-12T06:34:24.129Z,21.40
2023-05-12T06:36:55.128Z,22.07
2023-05-12T06:39:23.710Z,25.97
2023-05-12T06:41:52.239Z,25.53
2023-05-12T06:44:21.143Z,25.07
2023-05-12T06:46:49.570Z,21.23
2023-05-12T06:49:18.042Z,21.20
2023-05-12T06:51:46.752Z,22.30
2023-05-12T06:54:16.391Z,20.30
2023-05-12T06:56:44.940Z,25.80
2023-05-12T06:59:13.417Z,20.17
2023-05-12T07:01:43.169Z,33.27
2023-05-12T07:04:11.718Z,18.93
2023-05-12T07:06:40.298Z,24.20
2023-05-12T07:09:08.656Z,26.43
2023-05-12T07:11:38.569Z,20.30
2023-05-12T07:14:07.116Z,24.83
2023-05-12T07:16:35.585Z,22.43
2023-05-12T07:19:05.891Z,18.50
2023-05-12T07:21:34.295Z,23.30
2023-05-12T07:24:02.703Z,21.73
2023-05-12T07:26:31.087Z,17.97
2023-05-12T07:29:01.433Z,20.20
2023-05-12T07:31:29.944Z,8.00
2023-05-12T07:33:58.397Z,0.00
2023-05-12T07:36:26.957Z,0.20
2023-05-12T07:38:55.459Z,0.10
2023-05-12T07:41:24.451Z,0.00
2023-05-12T07:43:52.953Z,0.13
2023-05-12T07:46:22.553Z,0.00
2023-05-12T07:48:50.920Z,0.00
2023-05-12T07:51:19.448Z,2.67
2023-05-12T07:53:47.928Z,0.10
2023-05-12T07:56:16.328Z,0.00
2023-05-12T07:58:46.750Z,0.00
2023-05-12T08:01:16.064Z,0.30
2023-05-12T08:03:45.942Z,0.07
2023-05-12T08:06:14.517Z,0.10
2023-05-12T08:08:42.944Z,0.00
2023-05-12T08:11:11.572Z,0.00
2023-05-12T08:13:40.185Z,0.00
2023-05-12T08:16:08.565Z,0.00
2023-05-12T08:18:37.073Z,0.00
2023-05-12T08:21:07.320Z,0.00
2023-05-12T08:23:37.745Z,0.40
2023-05-12T08:26:06.276Z,0.00
2023-05-12T08:28:34.743Z,0.00
2023-05-12T08:31:05.132Z,0.00
2023-05-12T08:33:34.998Z,0.20
2023-05-12T08:36:03.550Z,0.40
2023-05-12T08:38:34.132Z,0.10
2023-05-12T08:41:13.896Z,0.00
2023-05-12T08:43:45.724Z,0.30
2023-05-12T08:46:14.752Z,0.83
2023-05-12T08:48:43.475Z,0.50
2023-05-12T08:51:13.134Z,0.30
2023-05-12T08:53:44.022Z,0.00
2023-05-12T08:58:48.490Z,0.20
2023-05-12T09:01:18.334Z,0.30
2023-05-12T09:03:47.190Z,0.07
2023-05-12T09:06:15.789Z,0.27
2023-05-12T09:08:46.403Z,0.40
2023-05-12T09:11:15.513Z,0.00
2023-05-12T09:13:51.776Z,2.30
2023-05-12T09:16:25.149Z,0.20
2023-05-12T09:18:55.122Z,0.10
2023-05-12T09:21:24.184Z,0.00
2023-05-12T09:23:59.286Z,0.23
2023-05-12T09:26:29.503Z,0.20
2023-05-12T09:29:08.349Z,0.10
2023-05-12T09:31:37.461Z,0.10
2023-05-12T09:34:09.192Z,0.97
2023-05-12T09:36:37.833Z,0.10
2023-05-12T09:39:09.167Z,0.63
2023-05-12T09:41:38.077Z,0.97
2023-05-12T09:44:08.512Z,0.87
2023-05-12T09:46:37.018Z,1.40
2023-05-12T09:49:05.501Z,0.60
2023-05-12T09:51:34.498Z,0.10
2023-05-12T09:54:03.353Z,1.30
2023-05-12T09:56:36.409Z,0.40
2023-05-12T09:59:06.415Z,1.20
2023-05-12T10:01:34.836Z,0.67
2023-05-12T10:04:06.234Z,0.10
2023-05-12T10:06:42.097Z,0.30
2023-05-12T10:09:17.472Z,0.93
2023-05-12T10:11:49.596Z,0.67
2023-05-12T10:14:19.345Z,1.00
2023-05-12T10:16:48.617Z,1.40
2023-05-12T10:19:17.039Z,0.73
2023-05-12T10:21:46.352Z,0.37
2023-05-12T10:24:16.868Z,0.63
2023-05-12T10:26:46.687Z,2.40
2023-05-12T10:29:16.456Z,1.13
2023-05-12T10:31:48.006Z,0.77
2023-05-12T10:34:19.589Z,0.60
2023-05-12T10:36:49.323Z,2.33
2023-05-12T10:39:18.237Z,0.70
2023-05-12T10:41:47.772Z,3.40
2023-05-12T10:44:16.220Z,1.03
2023-05-12T10:46:45.491Z,0.70
2023-05-12T10:49:15.627Z,0.20
2023-05-12T10:51:50.987Z,0.73
2023-05-12T10:54:26.032Z,0.70
2023-05-12T10:57:00.186Z,1.37
2023-05-12T10:59:29.109Z,5.00
2023-05-12T11:02:03.906Z,1.23
2023-05-12T11:04:42.735Z,1.43
2023-05-12T11:07:14.366Z,1.13
2023-05-12T11:09:56.745Z,1.73
2023-05-12T11:12:29.511Z,2.43
2023-05-12T11:15:00.163Z,1.05
2023-05-12T11:17:28.740Z,1.57
2023-05-12T11:19:57.156Z,0.03
2023-05-12T11:22:26.213Z,1.03
2023-05-12T11:24:54.699Z,26.27
2023-05-12T11:27:24.265Z,137.20
2023-05-12T11:30:01.365Z,113.90
2023-05-12T11:32:30.569Z,126.70
2023-05-12T11:35:12.858Z,125.23
2023-05-12T11:37:41.834Z,109.37
2023-05-12T11:40:18.025Z,118.33
2023-05-12T11:42:48.860Z,119.40
2023-05-12T11:45:23.351Z,113.43
2023-05-12T11:47:52.043Z,122.10
2023-05-12T11:50:25.913Z,117.27
2023-05-12T11:52:55.664Z,120.27
2023-05-12T11:55:25.804Z,93.53
2023-05-12T11:57:59.120Z,97.93
2023-05-12T12:00:34.146Z,115.83
2023-05-12T12:03:10.417Z,118.80
2023-05-12T12:05:39.406Z,113.47
2023-05-12T12:08:09.720Z,125.50
2023-05-12T12:10:38.205Z,113.47
2023-05-12T12:13:06.593Z,117.57
2023-05-12T12:15:36.601Z,91.83
2023-05-12T12:18:05.286Z,116.57
2023-05-12T12:20:34.038Z,102.03
2023-05-12T12:23:02.477Z,115.83
2023-05-12T12:25:31.224Z,116.10
2023-05-12T12:27:59.796Z,116.93
2023-05-12T12:30:28.910Z,113.43
2023-05-12T12:32:58.839Z,108.87
2023-05-12T12:35:27.380Z,88.20
2023-05-12T12:37:56.429Z,101.83
2023-05-12T12:40:24.969Z,84.70
2023-05-12T12:42:53.452Z,79.63
2023-05-12T12:45:22.538Z,92.40
2023-05-12T12:47:54.864Z,91.53
2023-05-12T12:50:26.422Z,100.17
2023-05-12T12:52:55.603Z,82.67
2023-05-12T12:55:24.231Z,87.75
2023-05-12T12:57:52.722Z,90.93
2023-05-12T13:00:23.585Z,89.20
2023-05-12T13:02:52.629Z,81.20
2023-05-12T13:05:21.292Z,94.87
2023-05-12T13:07:51.682Z,91.83
2023-05-12T13:10:20.461Z,90.13
2023-05-12T13:12:48.923Z,105.07
2023-05-12T13:15:19.361Z,110.33
2023-05-12T13:17:48.262Z,102.53
2023-05-12T13:20:17.429Z,108.30
2023-05-12T13:22:46.024Z,98.75
2023-05-12T13:25:15.720Z,101.10
2023-05-12T13:27:44.450Z,106.55
2023-05-12T13:30:13.759Z,101.47
2023-05-12T13:32:42.731Z,113.13
2023-05-12T13:35:11.358Z,123.53
2023-05-12T13:37:39.647Z,124.77
2023-05-12T13:40:09.618Z,121.60
2023-05-12T13:42:39.204Z,117.17
2023-05-12T13:45:09.265Z,126.17
2023-05-12T13:47:37.816Z,126.93
2023-05-12T13:50:07.737Z,118.90
2023-05-12T13:52:36.267Z,115.60
2023-05-12T13:55:04.936Z,118.70
2023-05-12T13:57:33.938Z,113.57
2023-05-12T14:00:04.626Z,107.63
2023-05-12T14:02:34.312Z,117.40
2023-05-12T14:05:02.907Z,113.17
2023-05-12T14:07:31.274Z,106.30
2023-05-12T14:10:00.315Z,99.93
2023-05-12T14:12:31.195Z,106.40
2023-05-12T14:15:15.966Z,98.27
2023-05-12T14:17:49.844Z,102.43
2023-05-12T14:20:18.361Z,98.17
2023-05-12T14:22:46.755Z,96.63
2023-05-12T14:25:16.273Z,105.93
2023-05-12T14:27:45.402Z,111.90
2023-05-12T14:30:14.825Z,102.03
2023-05-12T14:32:43.551Z,101.97
2023-05-12T14:35:13.511Z,105.80
2023-05-12T14:37:41.904Z,92.53
2023-05-12T14:40:12.262Z,89.70
2023-05-12T14:42:40.643Z,92.93
2023-05-12T14:45:10.074Z,87.17
2023-05-12T14:47:38.787Z,95.67
2023-05-12T14:50:07.891Z,97.97
2023-05-12T14:52:39.341Z,91.77
2023-05-12T14:55:11.587Z,89.33
2023-05-12T14:57:40.477Z,82.63
2023-05-12T15:00:11.017Z,81.67
2023-05-12T15:02:39.932Z,87.13
2023-05-12T15:05:09.731Z,86.73
2023-05-12T15:07:39.877Z,88.37
2023-05-12T15:10:09.056Z,76.37
2023-05-12T15:12:37.361Z,86.23
2023-05-12T15:15:08.580Z,86.10
2023-05-12T15:17:37.794Z,81.47
2023-05-12T15:20:06.852Z,88.37
2023-05-12T15:22:35.232Z,79.13
2023-05-12T15:25:05.402Z,77.60
2023-05-12T15:27:34.240Z,83.87
2023-05-12T15:30:02.730Z,82.13
2023-05-12T15:32:31.660Z,79.40
2023-05-12T15:35:00.055Z,83.57
2023-05-12T15:37:28.473Z,75.90
2023-05-12T15:39:56.860Z,73.00
2023-05-12T15:42:32.946Z,66.60
2023-05-12T15:45:02.075Z,60.95
2023-05-12T15:47:30.723Z,65.80
2023-05-12T15:49:59.540Z,75.40
2023-05-12T15:52:28.316Z,67.55
2023-05-12T15:54:56.806Z,59.80
2023-05-12T15:57:26.537Z,79.28
2023-05-12T15:59:59.843Z,78.65
2023-05-12T16:02:28.258Z,77.88
2023-05-12T16:04:56.730Z,74.22
2023-05-12T16:07:29.400Z,80.37
2023-05-12T16:09:58.123Z,82.67
2023-05-12T16:12:27.910Z,81.27
2023-05-12T16:14:56.540Z,80.33
2023-05-12T16:17:24.993Z,77.80
2023-05-12T16:19:56.367Z,68.63
2023-05-12T16:22:24.926Z,71.50
2023-05-12T16:24:54.627Z,68.72
2023-05-12T16:27:23.046Z,65.20
2023-05-12T16:29:53.829Z,68.18
2023-05-12T16:32:22.401Z,78.03
2023-05-12T16:34:51.091Z,81.07
2023-05-12T16:37:19.512Z,78.03
2023-05-12T16:39:47.967Z,77.33
2023-05-12T16:42:16.548Z,79.00
2023-05-12T16:44:45.063Z,74.70
2023-05-12T16:47:14.734Z,82.17
2023-05-12T16:49:43.097Z,76.57
2023-05-12T16:52:12.526Z,80.63
2023-05-12T16:54:42.275Z,70.80
2023-05-12T16:57:10.554Z,68.43
2023-05-12T16:59:39.690Z,74.93
2023-05-12T17:02:08.624Z,65.97
2023-05-12T17:04:38.578Z,73.72
2023-05-12T17:07:07.182Z,72.43
2023-05-12T17:09:35.784Z,71.47
2023-05-12T17:12:04.990Z,70.60
2023-05-12T17:14:34.639Z,66.57
2023-05-12T17:17:03.261Z,75.57
2023-05-12T17:19:32.115Z,63.47
2023-05-12T17:22:02.093Z,68.23
2023-05-12T17:24:30.508Z,68.40
2023-05-12T17:26:59.496Z,67.60
2023-05-12T17:29:28.432Z,63.78
2023-05-12T17:31:56.942Z,71.68
2023-05-12T17:34:25.396Z,69.73
2023-05-12T17:36:54.132Z,76.27
2023-05-12T17:39:24.373Z,70.50
2023-05-12T17:41:52.941Z,72.40
2023-05-12T17:44:21.581Z,77.93
2023-05-12T17:46:50.407Z,71.17
2023-05-12T17:49:19.196Z,67.97
2023-05-12T17:51:49.383Z,74.22
2023-05-12T17:54:17.873Z,72.70
2023-05-12T17:56:48.056Z,68.55
2023-05-12T17:59:16.440Z,75.80
2023-05-12T18:01:44.941Z,74.47
2023-05-12T18:04:13.198Z,79.72
2023-05-12T18:06:41.620Z,83.53
2023-05-12T18:09:10.043Z,72.83
2023-05-12T18:11:38.406Z,71.13
2023-05-12T18:14:08.354Z,75.50
2023-05-12T18:16:36.863Z,82.35
2023-05-12T18:19:05.360Z,84.97
2023-05-12T18:21:33.908Z,81.87
2023-05-12T18:24:02.579Z,81.83
2023-05-12T18:26:31.656Z,78.80
2023-05-12T18:29:00.546Z,78.77
2023-05-12T18:31:30.583Z,82.47
2023-05-12T18:33:59.399Z,89.00
2023-05-12T18:36:28.747Z,85.17
2023-05-12T18:38:57.188Z,88.60
2023-05-12T18:41:25.566Z,70.40
2023-05-12T18:43:54.029Z,76.10
2023-05-12T18:46:22.472Z,81.33
2023-05-12T18:48:52.171Z,73.30
2023-05-12T18:51:20.650Z,68.07
2023-05-12T18:53:49.165Z,69.67
2023-05-12T18:56:17.571Z,71.32
2023-05-12T18:58:45.978Z,83.80
2023-05-12T19:01:14.442Z,85.03
2023-05-12T19:03:42.839Z,84.97
2023-05-12T19:06:13.412Z,77.13
2023-05-12T19:08:41.964Z,81.30
2023-05-12T19:11:10.676Z,79.47
2023-05-12T19:13:42.593Z,72.67
2023-05-12T19:16:11.094Z,82.87
2023-05-12T19:18:39.889Z,81.87
2023-05-12T19:21:08.822Z,74.33
2023-05-12T19:23:38.484Z,77.80
2023-05-12T19:26:07.454Z,77.10
2023-05-12T19:28:35.866Z,80.97
2023-05-12T19:31:04.507Z,76.30
2023-05-12T19:33:34.851Z,83.70
2023-05-12T19:36:03.548Z,75.13
2023-05-12T19:38:32.016Z,80.23
2023-05-12T19:41:01.637Z,92.83
2023-05-12T19:43:30.078Z,82.90
2023-05-12T19:45:58.477Z,93.03
2023-05-12T19:48:26.840Z,86.60
2023-05-12T19:50:55.742Z,69.43
2023-05-12T19:53:24.148Z,81.93
2023-05-12T19:55:52.666Z,73.57
2023-05-12T19:58:22.531Z,83.07
2023-05-12T20:00:51.156Z,80.03
2023-05-12T20:03:19.953Z,85.17
2023-05-12T20:05:48.777Z,82.70
2023-05-12T20:08:17.211Z,76.80
2023-05-12T20:10:46.142Z,75.63
2023-05-12T20:13:14.857Z,63.13
2023-05-12T20:15:44.713Z,70.60
2023-05-12T20:18:15.611Z,73.43
2023-05-12T20:20:44.411Z,75.00
2023-05-12T20:23:12.769Z,65.40
2023-05-12T20:25:41.338Z,73.20
2023-05-12T20:28:11.612Z,57.97
2023-05-12T20:30:41.078Z,55.37
2023-05-12T20:33:10.816Z,74.33
2023-05-12T20:35:39.199Z,55.33
2023-05-12T20:38:07.593Z,56.87
2023-05-12T20:40:36.164Z,52.43
2023-05-12T20:43:04.607Z,46.10
2023-05-12T20:45:33.710Z,42.70
2023-05-12T20:48:02.549Z,39.97
2023-05-12T20:50:32.280Z,44.43
2023-05-12T20:53:00.987Z,42.40
2023-05-12T20:55:29.511Z,45.33
2023-05-12T20:57:57.956Z,48.97
2023-05-12T21:00:26.354Z,46.80
2023-05-12T21:02:55.623Z,49.70
2023-05-12T21:05:24.151Z,37.13
2023-05-12T21:07:53.926Z,36.13
2023-05-12T21:10:23.322Z,32.77
2023-05-12T21:12:52.657Z,35.80
2023-05-12T21:15:21.198Z,36.67
2023-05-12T21:17:49.955Z,22.23
2023-05-12T21:20:18.540Z,19.30
2023-05-12T21:22:46.993Z,18.33
2023-05-12T21:25:16.533Z,22.60
2023-05-12T21:27:47.459Z,17.77
2023-05-12T21:30:15.978Z,17.23
2023-05-12T21:32:44.516Z,16.63
2023-05-12T21:35:12.989Z,16.27
2023-05-12T21:37:41.581Z,17.57
2023-05-12T21:40:11.190Z,18.25
2023-05-12T21:42:40.890Z,21.80
2023-05-12T21:45:10.122Z,37.37
2023-05-12T21:47:38.861Z,42.33
2023-05-12T21:50:08.175Z,45.03
2023-05-12T21:52:36.823Z,47.10
2023-05-12T21:55:05.559Z,52.57
2023-05-12T21:57:33.977Z,48.57
2023-05-12T22:00:04.183Z,56.50
2023-05-12T22:02:32.852Z,65.27
2023-05-12T22:05:01.407Z,58.47
2023-05-12T22:07:30.209Z,60.07
2023-05-12T22:09:58.914Z,66.73
2023-05-12T22:12:27.344Z,62.13
2023-05-12T22:14:55.780Z,58.20
2023-05-12T22:17:25.711Z,57.47
2023-05-12T22:19:54.356Z,64.60
2023-05-12T22:22:22.770Z,75.00
2023-05-12T22:24:51.904Z,59.93
2023-05-12T22:27:22.208Z,59.30
2023-05-12T22:29:50.629Z,66.93
2023-05-12T22:32:19.035Z,64.67
2023-05-12T22:34:48.522Z,64.97
2023-05-12T22:37:17.007Z,59.70
2023-05-12T22:39:45.530Z,68.50
2023-05-12T22:42:13.942Z,58.77
2023-05-12T22:44:42.356Z,68.07
2023-05-12T22:47:10.686Z,57.73
2023-05-12T22:49:39.185Z,55.00
2023-05-12T22:52:09.035Z,64.20
2023-05-12T22:54:37.517Z,62.77
2023-05-12T22:57:06.094Z,59.63
2023-05-12T22:59:34.602Z,62.80
2023-05-12T23:02:03.160Z,56.77
2023-05-12T23:04:31.578Z,55.13
2023-05-12T23:07:00.006Z,63.70
2023-05-12T23:09:30.132Z,62.57
2023-05-12T23:11:58.844Z,54.07
2023-05-12T23:14:27.298Z,63.80
2023-05-12T23:16:55.814Z,60.77
2023-05-12T23:19:24.285Z,63.40
2023-05-12T23:21:52.612Z,60.13
2023-05-12T23:24:21.717Z,55.37
2023-05-12T23:26:51.468Z,59.03
2023-05-12T23:29:19.841Z,68.27
2023-05-12T23:31:48.379Z,56.37
2023-05-12T23:34:16.808Z,71.20
2023-05-12T23:36:45.350Z,59.80
2023-05-12T23:39:14.389Z,65.40
2023-05-12T23:41:42.721Z,62.33
2023-05-12T23:44:12.387Z,58.97
2023-05-12T23:46:40.955Z,57.50
2023-05-12T23:49:09.428Z,70.53
2023-05-12T23:51:38.271Z,73.23
2023-05-12T23:54:06.661Z,56.60
2023-05-12T23:56:35.149Z,66.67
2023-05-12T23:59:03.576Z,67.33
